Tiempo atmosférico en la estación meteorológica de Colunga, Asturias (35 m.)



Fecha
DESCASC
Temp. máxima en grados centígrados (hora)
DESCASC
Temp. mínima en grados centígrados (hora)
DESCASC
Temp. media en grados centígrados
DESCASC
Racha de viento máxima en m/sg (hora)
DESCASC
Velocidad máxima media en intervalos de 10 minutos(hora)
DESCASC
Precipitaciones diarias en mm
DESCASC
Precipitaciones de 00:00 a 06:00 en mm
DESCASC
Precipitaciones de 06:00 a 12:00 en mm
DESCASC
Precipitaciones de 12:00 a 18:00 en mm
DESCASC
Precipitaciones de 18:00 a 24:00 en mm
DESCASC
23-05-2018 20.1 (15:20) 14.6 (02:00) 17.4 6.11 (13:40) 3.61 (16:40) 0 0 0 0 0
22-05-2018 19.3 (17:50) 10.7 (07:10) 15 4.72 (01:30) 3.61 (13:50) 0 0 0 0 0
21-05-2018 19 (15:30) 10.9 (05:10) 14.9 5.56 (02:00) 3.61 (02:00) 0 0 0 0 0
20-05-2018 18.5 (15:20) 10.4 (00:00) 14.4 6.39 (14:30) 4.17 (14:40) 0 0 0 0 0
19-05-2018 18.7 (16:10) 13.8 (00:00) 16.3 5.56 (00:50) 3.33 (00:30) 0 0 0 0 0
18-05-2018 18.4 (15:50) 13.8 (00:00) 16.1 6.39 (19:20) 3.89 (19:20) 0 0 0 0 0
17-05-2018 17.3 (14:20) 12 (00:00) 14.6 5.28 (14:50) 3.06 (15:50) 0 0 0 0 0
16-05-2018 17.2 (15:50) 11.7 (00:00) 14.5 5.56 (19:00) 3.61 (18:40) -- 1.8 -- -- 0
15-05-2018 16.5 (16:20) 8 (00:00) 12.3 4.44 (01:50) 3.33 (05:50) 0 0 0 0 0
14-05-2018 16.3 (15:20) 10 (00:00) 13.1 6.11 (10:10) 3.06 (10:00) 8 6.8 1.2 0 0
13-05-2018 14.7 (12:50) 8.3 (00:00) 11.5 9.72 (11:50) 5.56 (11:50) 1.8 0 0 0.6 1.2
12-05-2018 14.8 (14:40) 8.5 (00:00) 11.7 14.72 (11:50) 7.22 (13:00) 7.2 2.2 0 0.4 4.6
11-05-2018 16.8 (19:20) 7.2 (07:30) 12 6.39 (00:10) 3.61 (02:10) 0 0 0 0 0
10-05-2018 16.2 (14:00) 11 (00:00) 13.6 10.28 (20:30) 6.39 (19:30) 0.8 0.8 0 0 0
09-05-2018 15.3 (11:20) 12.3 (00:00) 13.8 4.72 (23:30) 2.22 (05:40) 0 0 0 0 0
08-05-2018 15.4 (18:30) 12.1 (00:00) 13.8 5.83 (14:50) 3.06 (14:50) 0 0 0 0 0
07-05-2018 16.1 (16:50) 10.5 (00:00) 13.3 4.72 (16:30) 3.61 (16:20) 0 0 0 0 0
06-05-2018 17.9 (16:10) 9 (00:00) 13.4 5 (16:50) 3.61 (17:00) 0 0 0 0 0
05-05-2018 16.5 (15:50) 7.4 (00:00) 12 6.11 (22:20) 3.61 (16:00) 0 0 0 0 0
04-05-2018 15.8 (14:40) 8.2 (00:00) 12 5.56 (16:20) 3.33 (17:00) 0 0 0 0 0
03-05-2018 15 (14:40) 8.5 (00:00) 11.8 4.72 (09:50) 2.78 (09:50) 2 2 0 0 0
02-05-2018 16.7 (17:00) 9.2 (00:00) 13 8.33 (17:30) 4.17 (16:10) 6.6 0 0.2 0 6.4
01-05-2018 14.5 (11:50) 6.3 (07:00) 10.4 5.83 (18:40) 3.89 (18:40) 0.6 0.6 0 0 0
30-04-2018 12.6 (15:10) 7 (00:00) 9.8 7.5 (15:20) 4.44 (15:10) 18.8 6 5 7.8 0
29-04-2018 13.7 (14:50) 5.8 (00:00) 9.8 7.22 (18:40) 3.89 (13:30) 6.4 0 0 0.2 6.2
28-04-2018 11.4 (12:10) 8.9 (00:00) 10.1 6.11 (17:00) 3.61 (15:30) 9.2 0 0 1 8.2
27-04-2018 15.2 (12:50) 9.2 (00:00) 12.2 10.28 (13:50) 5.28 (14:00) 0 0 0 0 0
26-04-2018 15.3 (15:40) 10.5 (00:00) 12.9 8.06 (18:40) 5 (18:50) 0.2 0 0.2 0 0
25-04-2018 16.4 (13:20) 11.7 (00:00) 14 5.28 (14:50) 2.78 (14:10) 1.2 0.6 0.6 0 0

Gráficas

Temp. máximas Temp. mínimas Temp. medias Precipitaciones Rachas de viento máximas Velocidades máximas media en intervalos de 10 minutos

Datos horarios

Fecha y hora oficial Temperatura (ºC) Velocidad del viento (km/h) Dirección del viento Racha (km/h) Dirección de racha Precipitación (mm) Presión (hPa) Tendencia (hPa) Humedad (%)
2018-05-24 23:00:00 16.5 2 Nordeste 6 Este 0 -- -- 98
2018-05-24 22:00:00 16.7 0 Calma 7 Norte 0.2 -- -- 96
2018-05-24 21:00:00 17.2 3 Nordeste 9 Este 0 -- -- 95
2018-05-24 20:00:00 17.8 4 Este 13 Este 0 -- -- 91
2018-05-24 19:00:00 18.5 7 Este 13 Nordeste 0 -- -- 91
2018-05-24 18:00:00 18.5 8 Este 11 Este 0 -- -- 91
2018-05-24 17:00:00 18.4 5 Este 13 Este 0 -- -- 89
2018-05-24 16:00:00 19.3 9 Este 17 Nordeste 0 -- -- 85
2018-05-24 15:00:00 20 9 Este 21 Nordeste 0 -- -- 84
2018-05-24 14:00:00 19.6 10 Este 16 Este 0 -- -- 86
2018-05-24 13:00:00 18.9 5 Nordeste 11 Nordeste 0 -- -- 91
2018-05-24 12:00:00 19.3 7 Este 11 Nordeste 0 -- -- 88
2018-05-24 11:00:00 18.2 5 Nordeste 10 Nordeste 0 -- -- 94
2018-05-24 10:00:00 17.5 0 Calma 4 Sudeste 0 -- -- 98
2018-05-24 09:00:00 16.6 0 Calma 7 Oeste 0 -- -- 100
2018-05-24 08:00:00 16.1 3 Oeste 5 Sudoeste 0 -- -- 100
2018-05-24 07:00:00 15.6 0 Calma 4 Sudoeste 0 -- -- 100
2018-05-24 06:00:00 15.4 0 Calma 6 Oeste 0 -- -- 100
2018-05-24 05:00:00 15.1 3 Sudoeste 5 Sudoeste 0 -- -- 100
2018-05-24 04:00:00 15.2 4 Oeste 11 Oeste 0 -- -- 99
2018-05-24 03:00:00 15.2 4 Oeste 7 Este 0 -- -- 98
2018-05-24 02:00:00 16.2 0 Calma 8 Oeste 0 -- -- 98
2018-05-24 01:00:00 16.4 3 Nordeste 9 Este 0 -- -- 97
2018-05-24 00:00:00 16.6 2 Sur 16 Este 0 -- -- 97
2018-05-23 23:00:00 16.7 7 Este 10 Este 0 -- -- 95
2018-05-23 22:00:00 16.8 0 Calma 14 Este 0 -- -- 95
2018-05-23 21:00:00 17.1 6 Este 15 Este 0 -- -- 93
2018-05-23 20:00:00 17.3 9 Este 16 Este 0 -- -- 93
2018-05-23 19:00:00 17.5 6 Nordeste 19 Nordeste 0 -- -- 92
2018-05-23 18:00:00 18.4 6 Este 12 Este 0 -- -- 89
2018-05-23 17:00:00 18.6 8 Este 20 Nordeste 0 -- -- 87
2018-05-23 16:00:00 18.9 9 Nordeste 17 Este 0 -- -- 84
2018-05-23 15:00:00 19.5 11 Este 21 Nordeste 0 -- -- 82
2018-05-23 14:00:00 19.2 10 Nordeste 22 Nordeste 0 -- -- 82
2018-05-23 13:00:00 19.4 10 Este 18 Nordeste 0 -- -- 80
2018-05-23 12:00:00 18.7 8 Este 18 Este 0 -- -- 81
2018-05-23 11:00:00 18.2 9 Este 17 Este 0 -- -- 84
2018-05-23 10:00:00 16.5 5 Nordeste 9 Nordeste 0 -- -- 94
2018-05-23 09:00:00 15.6 0 Calma 4 Sudoeste 0 -- -- 99
2018-05-23 08:00:00 15.1 2 Sur 8 Nordeste 0 -- -- 100
2018-05-23 07:00:00 14.9 0 Calma 4 Este 0 -- -- 100
2018-05-23 06:00:00 15 0 Calma 6 Este 0 -- -- 100
2018-05-23 05:00:00 15.2 4 Este 6 Este 0 -- -- 100
2018-05-23 04:00:00 15.5 4 Este 9 Nordeste 0 -- -- 100
2018-05-23 03:00:00 15.5 0 Calma 8 Nordeste 0 -- -- 100
2018-05-23 02:00:00 14.6 0 Calma 5 Oeste 0 -- -- 100
2018-05-23 01:00:00 15.7 0 Calma 2 Sudeste 0 -- -- 100
2018-05-23 00:00:00 15.9 2 Sudeste 8 Nordeste 0 -- -- 100
2018-05-22 23:00:00 15.7 6 Norte 10 Nordeste 0 -- -- 99
2018-05-22 22:00:00 16 5 Nordeste 13 Nordeste 0 -- -- 96
2018-05-22 21:00:00 17.3 3 Nordeste 8 Este 0 -- -- 90
2018-05-22 20:00:00 18.4 7 Nordeste 13 Nordeste 0 -- -- 87
2018-05-22 19:00:00 19.1 8 Este 13 Este 0 -- -- 84
2018-05-22 18:00:00 19.3 8 Este 13 Este 0 -- -- 84
2018-05-22 17:00:00 18.7 8 Nordeste 12 Este 0 -- -- 86
2018-05-22 16:00:00 17.9 7 Este 13 Este 0 -- -- 89
2018-05-22 15:00:00 17.4 8 Nordeste 15 Nordeste 0 -- -- 89
2018-05-22 14:00:00 17.3 12 Nordeste 15 Nordeste 0 -- -- 90
2018-05-22 13:00:00 17.9 9 Nordeste 14 Nordeste 0 -- -- 86
2018-05-22 12:00:00 17.7 9 Nordeste 13 Nordeste 0 -- -- 86
2018-05-22 11:00:00 17 9 Nordeste 13 Nordeste 0 -- -- 90
2018-05-22 10:00:00 16.1 4 Nordeste 8 Nordeste 0 -- -- 95
2018-05-22 09:00:00 13.8 3 Sudoeste 13 Sudoeste 0 -- -- 98
2018-05-22 08:00:00 12.2 8 Oeste 13 Oeste 0 -- -- 100
2018-05-22 07:00:00 11.1 9 Oeste 13 Oeste 0 -- -- 99
2018-05-22 06:00:00 11 9 Oeste 13 Oeste 0 -- -- 98
2018-05-22 05:00:00 11.4 9 Oeste 14 Oeste 0 -- -- 98
2018-05-22 04:00:00 11.8 9 Oeste 16 Oeste 0 -- -- 98
2018-05-22 03:00:00 12.1 9 Oeste 15 Oeste 0 -- -- 98
2018-05-22 02:00:00 12.5 11 Oeste 17 Oeste 0 -- -- 98
2018-05-22 01:00:00 12.9 10 Oeste 16 Oeste 0 -- -- 97
2018-05-22 00:00:00 13.6 7 Oeste 12 Oeste 0 -- -- 96
2018-05-21 23:00:00 13.6 6 Oeste 9 Oeste 0 -- -- 95
2018-05-21 22:00:00 15.2 2 Norte 6 Norte 0 -- -- 90
2018-05-21 21:00:00 16.6 4 Nordeste 12 Nordeste 0 -- -- 86
2018-05-21 20:00:00 18 8 Este 14 Nordeste 0 -- -- 81
2018-05-21 19:00:00 18.5 6 Nordeste 13 Este 0 -- -- 80
2018-05-21 18:00:00 18.7 7 Nordeste 14 Nordeste 0 -- -- 80
2018-05-21 17:00:00 18.8 8 Nordeste 14 Nordeste 0 -- -- 80
2018-05-21 16:00:00 18.7 7 Nordeste 15 Nordeste 0 -- -- 80
2018-05-21 15:00:00 18.6 8 Nordeste 12 Nordeste 0 -- -- 81
2018-05-21 14:00:00 18.4 7 Nordeste 11 Nordeste 0 -- -- 82
2018-05-21 13:00:00 17.2 8 Nordeste 12 Nordeste 0 -- -- 82
2018-05-21 12:00:00 17.7 6 Norte 11 Nordeste 0 -- -- 82
2018-05-21 11:00:00 17.4 8 Este 11 Nordeste 0 -- -- 82
2018-05-21 10:00:00 16.4 4 Nordeste 10 Este 0 -- -- 90
2018-05-21 09:00:00 14.2 5 Oeste 10 Sudoeste 0 -- -- 98
2018-05-21 08:00:00 12.1 7 Oeste 10 Oeste 0 -- -- 99
2018-05-21 07:00:00 11.4 6 Oeste 11 Oeste 0 -- -- 99
2018-05-21 06:00:00 11 6 Oeste 13 Oeste 0 -- -- 99
2018-05-21 05:00:00 11 6 Sudoeste 8 Sudoeste 0 -- -- 98
2018-05-21 04:00:00 11.5 0 Calma 13 Este 0 -- -- 96
2018-05-21 03:00:00 14.1 6 Este 18 Este 0 -- -- 96
2018-05-21 02:00:00 14.5 13 Este 20 Este 0 -- -- 96
2018-05-21 01:00:00 14.5 8 Este 17 Este 0 -- -- 96
2018-05-21 00:00:00 14.9 10 Este 15 Este 0 -- -- 96
2018-05-20 23:00:00 15 6 Este 17 Este 0 -- -- 95
2018-05-20 22:00:00 15.8 13 Este 23 Este 0 -- -- 95
2018-05-20 21:00:00 16.3 14 Este 20 Este 0 -- -- 92
2018-05-20 20:00:00 17.3 13 Este 22 Este 0 -- -- 86
2018-05-20 19:00:00 18 11 Este 20 Este 0 -- -- 82
2018-05-20 18:00:00 18.1 11 Este 22 Nordeste 0 -- -- 81
2018-05-20 17:00:00 18 15 Este 20 Este 0 -- -- 78
2018-05-20 16:00:00 18.1 13 Este 19 Este 0 -- -- 78
2018-05-20 15:00:00 18 13 Este 23 Este 0 -- -- 80
2018-05-20 14:00:00 17.8 13 Este 19 Este 0 -- -- 79
2018-05-20 13:00:00 17.8 10 Este 17 Este 0 -- -- 80
2018-05-20 12:00:00 17.4 8 Este 17 Este 0 -- -- 80
2018-05-20 11:00:00 16.8 8 Nordeste 15 Este 0 -- -- 84
2018-05-20 10:00:00 15.7 5 Nordeste 9 Este 0 -- -- 92
2018-05-20 09:00:00 13.4 2 Sudoeste 10 Sudoeste 0 -- -- 100
2018-05-20 08:00:00 11.3 6 Oeste 12 Oeste 0 -- -- 100
2018-05-20 07:00:00 10.4 6 Oeste 9 Oeste 0 -- -- 100
2018-05-20 06:00:00 10.8 4 Oeste 6 Oeste 0 -- -- 100
2018-05-20 05:00:00 11.6 2 Oeste 6 Sudoeste 0 -- -- 100
2018-05-20 04:00:00 10.9 0 Calma 8 Oeste 0 -- -- 99
2018-05-20 03:00:00 11.7 2 Sudoeste 7 Oeste 0 -- -- 98
2018-05-20 02:00:00 12.5 3 Oeste 5 Oeste 0 -- -- 96
2018-05-20 01:00:00 14.2 0 Calma 3 Este 0 -- -- 94
2018-05-20 00:00:00 14.8 2 Nordeste 16 Este 0 -- -- 92
2018-05-19 23:00:00 15.6 8 Este 15 Este 0 -- -- 91
2018-05-19 22:00:00 15.5 9 Este 13 Este 0 -- -- 91
2018-05-19 21:00:00 16.2 6 Este 15 Este 0 -- -- 90
2018-05-19 20:00:00 17.4 5 Nordeste 13 Este 0 -- -- 86
2018-05-19 19:00:00 18 7 Este 15 Este 0 -- -- 84
2018-05-19 18:00:00 18.3 8 Este 14 Este 0 -- -- 83
2018-05-19 17:00:00 18 10 Nordeste 15 Nordeste 0 -- -- 82
2018-05-19 16:00:00 18.6 8 Nordeste 13 Nordeste 0 -- -- 80
2018-05-19 15:00:00 18.1 9 Nordeste 14 Norte 0 -- -- 81
2018-05-19 14:00:00 18.3 9 Nordeste 16 Este 0 -- -- 81
2018-05-19 13:00:00 18 8 Nordeste 17 Este 0 -- -- 82
2018-05-19 12:00:00 17.5 7 Nordeste 14 Nordeste 0 -- -- 83
2018-05-19 11:00:00 17.2 8 Nordeste 12 Norte 0 -- -- 85
2018-05-19 10:00:00 15.9 6 Nordeste 9 Nordeste 0 -- -- 92
2018-05-19 09:00:00 14.8 3 Nordeste 5 Este 0 -- -- 97
2018-05-19 08:00:00 14.1 0 Calma 8 Este 0 -- -- 98
2018-05-19 07:00:00 14.3 5 Este 9 Nordeste 0 -- -- 97
2018-05-19 06:00:00 14.5 3 Nordeste 8 Nordeste 0 -- -- 98
2018-05-19 05:00:00 14.4 0 Calma 17 Este 0 -- -- 97
2018-05-19 04:00:00 14.9 9 Este 15 Este 0 -- -- 97
2018-05-19 03:00:00 15.1 10 Este 17 Este 0 -- -- 96
2018-05-19 02:00:00 15.2 10 Este 18 Nordeste 0 -- -- 95
2018-05-19 01:00:00 15.4 10 Este 20 Este 0 -- -- 95
2018-05-19 00:00:00 15.4 11 Este 20 Este 0 -- -- 96
2018-05-18 23:00:00 15.7 12 Este 20 Nordeste 0 -- -- 96
2018-05-18 22:00:00 15.7 12 Este 21 Este 0 -- -- 95
2018-05-18 21:00:00 15.8 10 Este 22 Este 0 -- -- 93
2018-05-18 20:00:00 16.3 12 Este 23 Nordeste 0 -- -- 91
2018-05-18 19:00:00 17.2 12 Este 19 Este 0 -- -- 87
2018-05-18 18:00:00 18 10 Este 15 Este 0 -- -- 85
2018-05-18 17:00:00 17.7 10 Este 19 Nordeste 0 -- -- 82
2018-05-18 16:00:00 18.4 9 Nordeste 18 Nordeste 0 -- -- 80
2018-05-18 15:00:00 17.4 10 Nordeste 16 Nordeste 0 -- -- 83
2018-05-18 14:00:00 17.3 10 Nordeste 14 Nordeste 0 -- -- 82
2018-05-18 13:00:00 17.8 7 Este 12 Nordeste 0 -- -- 79
2018-05-18 12:00:00 16 6 Nordeste 11 Nordeste 0 -- -- 86
2018-05-18 11:00:00 15.9 7 Nordeste 10 Norte 0 -- -- 84
2018-05-18 10:00:00 16.1 4 Oeste 8 Sudeste 0 -- -- 86
2018-05-18 09:00:00 14.3 4 Sudoeste 7 Oeste 0 -- -- 93
2018-05-18 08:00:00 13.9 3 Sudoeste 7 Oeste 0 -- -- 94
2018-05-18 07:00:00 13.9 4 Oeste 8 Oeste 0 -- -- 93
2018-05-18 06:00:00 14.1 3 Sudeste 15 Nordeste 0 -- -- 91
2018-05-18 05:00:00 14.1 3 Sudeste 10 Este 0 -- -- 92
2018-05-18 04:00:00 14.1 8 Este 19 Este 0 -- -- 91
2018-05-18 03:00:00 14.1 7 Este 13 Este 0 -- -- 91
2018-05-18 02:00:00 14.2 8 Este 15 Este 0 -- -- 91
2018-05-18 01:00:00 14.2 6 Este 10 Nordeste 0 -- -- 93
2018-05-18 00:00:00 14 2 Sudeste 5 Sudeste 0 -- -- 93
2018-05-17 23:00:00 14.2 6 Este 14 Nordeste 0 -- -- 91
2018-05-17 22:00:00 14.2 5 Este 11 Este 0 -- -- 90
2018-05-17 21:00:00 14.8 7 Este 11 Sudeste 0 -- -- 89
2018-05-17 20:00:00 15.3 6 Este 13 Este 0 -- -- 86
2018-05-17 19:00:00 16.4 7 Este 17 Este 0 -- -- 83
2018-05-17 18:00:00 16.5 9 Este 17 Nordeste 0 -- -- 81
2018-05-17 17:00:00 17 9 Este 17 Nordeste 0 -- -- 78
2018-05-17 16:00:00 17.1 10 Este 17 Este 0 -- -- 78
2018-05-17 15:00:00 17.1 10 Nordeste 19 Este 0 -- -- 78
2018-05-17 14:00:00 17 9 Este 16 Nordeste 0 -- -- 78
2018-05-17 13:00:00 16.8 9 Este 15 Este 0 -- -- 79
2018-05-17 12:00:00 16.4 8 Nordeste 13 Nordeste 0 -- -- 82
2018-05-17 11:00:00 15.9 9 Nordeste 12 Nordeste 0 -- -- 82
2018-05-17 10:00:00 15.1 4 Nordeste 9 Este 0 -- -- 88
2018-05-17 09:00:00 13.6 3 Sudoeste 9 Sudoeste 0 -- -- 95
2018-05-17 08:00:00 12.4 2 Sudoeste 7 Oeste 0 -- -- 99
2018-05-17 07:00:00 12.2 5 Sudoeste 7 Sudoeste 0 -- -- 98
2018-05-17 06:00:00 12.3 2 Oeste 6 Sudoeste 0 -- -- 99
2018-05-17 05:00:00 12.2 4 Oeste 9 Oeste 0 -- -- 98
2018-05-17 04:00:00 12.2 5 Oeste 8 Sudoeste 0 -- -- 97
2018-05-17 03:00:00 12.5 0 Calma 13 Este 0 -- -- 95
2018-05-17 02:00:00 13.1 6 Este 15 Este 0 -- -- 94
2018-05-17 01:00:00 13.4 5 Este 15 Este 0 -- -- 92
2018-05-17 00:00:00 13.8 10 Este 17 Este 0 -- -- 91
2018-05-16 23:00:00 13.7 8 Este 17 Este 0 -- -- 91
2018-05-16 22:00:00 13.7 11 Este 18 Nordeste 0 -- -- 90
2018-05-16 21:00:00 14.1 10 Este 17 Este 0 -- -- 88
2018-05-16 20:00:00 15.5 11 Este 18 Nordeste 0 -- -- 83
2018-05-16 19:00:00 15.4 12 Este 20 Este 0 -- -- 82
2018-05-16 18:00:00 16.1 12 Este 18 Este 0 -- -- 80
2018-05-16 17:00:00 16.7 10 Este 18 Este 0 -- -- 82
2018-05-16 16:00:00 16.9 9 Nordeste 17 Nordeste 0 -- -- 81
2018-05-16 15:00:00 16.6 9 Nordeste 14 Nordeste 0 -- -- 83
2018-05-16 14:00:00 16.2 9 Nordeste 13 Norte 0 -- -- 84
2018-05-16 13:00:00 14.5 9 Norte -- -- -- -- -- 91
2018-05-16 12:00:00 14.5 7 Nordeste 12 Norte -- -- -- 71
2018-05-16 11:00:00 14.5 6 Norte 11 Norte 0 -- -- 89
2018-05-16 10:00:00 14 0 Calma 7 Sudoeste 0 -- -- 98
2018-05-16 09:00:00 12.7 5 Oeste 11 Oeste 0 -- -- 100
2018-05-16 08:00:00 12 5 Oeste 9 Sudoeste 0 -- -- 100
2018-05-16 07:00:00 11.7 6 Sudoeste 10 Oeste 0 -- -- 100
2018-05-16 06:00:00 11.8 5 Sudoeste 9 Oeste 0.2 -- -- 100
2018-05-16 05:00:00 11.9 5 Sudoeste 7 Oeste 0.4 -- -- 99
2018-05-16 04:00:00 12 2 Noroeste 10 Oeste 1.2 -- -- 98
2018-05-16 03:00:00 12.4 2 Oeste 9 Noroeste 0 -- -- 97
2018-05-16 02:00:00 12.7 4 Norte 8 Nordeste 0 -- -- 96
2018-05-16 01:00:00 12.5 4 Sudoeste 6 Sudoeste 0 -- -- 95
2018-05-16 00:00:00 12.6 4 Sudoeste 9 Noroeste 0 -- -- 94
2018-05-15 23:00:00 12.5 5 Oeste 8 Oeste 0 -- -- 93
2018-05-15 22:00:00 13.4 4 Sudoeste 8 Oeste 0 -- -- 90
2018-05-15 21:00:00 13.9 2 Norte 12 Nordeste 0 -- -- 86
2018-05-15 20:00:00 15.1 5 Nordeste 12 Nordeste 0 -- -- 76
2018-05-15 19:00:00 15.4 4 Norte 13 Nordeste 0 -- -- 73
2018-05-15 18:00:00 15.7 9 Nordeste 14 Nordeste 0 -- -- 70
2018-05-15 17:00:00 16.4 9 Nordeste 15 Norte 0 -- -- 68
2018-05-15 16:00:00 16.4 8 Nordeste 12 Norte 0 -- -- 69
2018-05-15 15:00:00 16.3 8 Este 14 Nordeste 0 -- -- 65
2018-05-15 14:00:00 15.7 8 Nordeste 12 Nordeste 0 -- -- 68
2018-05-15 13:00:00 15.4 8 Nordeste 14 Nordeste 0 -- -- 69
2018-05-15 12:00:00 15.1 9 Nordeste 15 Nordeste 0 -- -- 68
2018-05-15 11:00:00 14.5 10 Nordeste 14 Nordeste 0 -- -- 69
2018-05-15 10:00:00 13.3 3 Sudoeste 11 Oeste 0 -- -- 78
2018-05-15 09:00:00 10.8 6 Oeste 13 Oeste 0 -- -- 95
2018-05-15 08:00:00 8.5 9 Oeste 14 Oeste 0 -- -- 97
2018-05-15 07:00:00 8.2 10 Oeste 14 Oeste 0 -- -- 97
2018-05-15 06:00:00 8.2 10 Oeste 16 Oeste 0 -- -- 97
2018-05-15 05:00:00 8 10 Oeste 15 Oeste 0 -- -- 97
2018-05-15 04:00:00 8.3 9 Oeste 15 Oeste 0 -- -- 97
2018-05-15 03:00:00 8.4 10 Oeste 15 Oeste 0 -- -- 96
2018-05-15 02:00:00 9 10 Oeste 16 Oeste 0 -- -- 95
2018-05-15 01:00:00 9.2 10 Oeste 15 Oeste 0 -- -- 94
2018-05-15 00:00:00 10 10 Oeste 14 Oeste 0 -- -- 93
2018-05-14 23:00:00 10.3 5 Oeste 8 Sudoeste 0 -- -- 94
2018-05-14 22:00:00 10.7 3 Noroeste 6 Norte 0 -- -- 89
2018-05-14 21:00:00 13.1 2 Noroeste 9 Nordeste 0 -- -- 80
2018-05-14 20:00:00 15.1 5 Nordeste 9 Nordeste 0 -- -- 70
2018-05-14 19:00:00 15.5 5 Nordeste 12 Nordeste 0 -- -- 70
2018-05-14 18:00:00 15.6 7 Norte 13 Nordeste 0 -- -- 73
2018-05-14 17:00:00 15.7 8 Nordeste 14 Norte 0 -- -- 75
2018-05-14 16:00:00 16 8 Nordeste 15 Nordeste 0 -- -- 75
2018-05-14 15:00:00 16 7 Nordeste 13 Este 0 -- -- 80
2018-05-14 14:00:00 15.9 8 Nordeste 15 Este 0 -- -- 78
2018-05-14 13:00:00 14.9 6 Nordeste 14 Este 0 -- -- 80
2018-05-14 12:00:00 15.4 9 Este 15 Este 0 -- -- 82
2018-05-14 11:00:00 12.9 8 Este 22 Este 0 -- -- 93
2018-05-14 10:00:00 12.2 11 Este 22 Este 0 -- -- 98
2018-05-14 09:00:00 12.4 3 Norte 10 Nordeste 0 -- -- 99
2018-05-14 08:00:00 11.8 5 Oeste 14 Oeste 0.2 -- -- 100
2018-05-14 07:00:00 10.9 8 Oeste 16 Oeste 1 -- -- 100
2018-05-14 06:00:00 10.8 2 Oeste 9 Sudeste 1.6 -- -- 99
2018-05-14 05:00:00 10.9 0 Calma 11 Oeste 2.6 -- -- 97
2018-05-14 04:00:00 11 4 Noroeste 14 Oeste 2 -- -- 96
2018-05-14 03:00:00 10.8 9 Oeste 17 Oeste 0.6 -- -- 96
2018-05-14 02:00:00 10.7 10 Oeste 17 Oeste 0 -- -- 95
2018-05-14 01:00:00 10.6 7 Oeste 14 Oeste 0 -- -- 95
2018-05-11 20:00:00 -- -- -- -- -- -- -- -- --
2018-05-11 19:00:00 -- -- -- -- -- -- -- -- --
2018-05-11 18:00:00 -- -- -- -- -- -- -- -- --
2018-05-11 17:00:00 16 7 Nordeste 12 Norte 0 -- -- 76
2018-05-11 16:00:00 16.5 5 Este 9 Este 0 -- -- 80
2018-05-11 15:00:00 15.1 5 Nordeste 15 Sudeste 0 -- -- 85
2018-05-11 14:00:00 15.6 7 Nordeste 14 Norte 0 -- -- 81
2018-05-11 13:00:00 15.7 9 Norte 18 Norte 0 -- -- 84
2018-05-11 12:00:00 15.6 7 Norte 20 Nordeste 0 -- -- 82
2018-05-11 11:00:00 16.1 4 Norte 22 Oeste 0 -- -- 80
2018-05-11 10:00:00 15.3 9 Oeste 21 Oeste 0 -- -- 75
2018-05-11 09:00:00 11.9 8 Sudoeste 14 Sudoeste 0 -- -- 95
2018-05-11 08:00:00 8.4 6 Oeste 9 Oeste 0 -- -- 99
2018-05-11 07:00:00 7.6 4 Oeste 17 Oeste 0 -- -- 96
2018-05-11 06:00:00 7.4 7 Oeste 13 Oeste 0 -- -- 97
2018-05-11 05:00:00 7.6 8 Oeste 13 Oeste 0 -- -- 97
2018-05-11 04:00:00 8.1 10 Oeste 14 Oeste 0 -- -- 94
2018-05-11 03:00:00 8.5 11 Oeste 17 Oeste 0 -- -- 94
2018-05-11 02:00:00 8.5 10 Oeste 14 Oeste 0 -- -- 92
2018-05-11 01:00:00 10 2 Oeste 23 Este 0 -- -- 83
2018-05-11 00:00:00 12.1 15 Este 29 Este 0 -- -- 75
2018-05-10 23:00:00 12.3 19 Este 32 Este 0 -- -- 79
2018-05-10 22:00:00 12.7 21 Este 36 Este 0 -- -- 77
2018-05-10 21:00:00 13 22 Este 37 Este 0 -- -- 76
2018-05-10 20:00:00 14.1 20 Este 36 Este 0 -- -- 71
2018-05-10 19:00:00 14.6 21 Este 34 Este 0 -- -- 69
2018-05-10 18:00:00 15.1 20 Este 32 Este 0 -- -- 67
2018-05-10 17:00:00 15.5 18 Este 30 Este 0 -- -- 67
2018-05-10 16:00:00 15.9 17 Este 26 Este 0 -- -- 67
2018-05-10 15:00:00 16 13 Este 22 Este 0 -- -- 68
2018-05-10 14:00:00 16.2 12 Este 19 Este 0 -- -- 68
2018-05-10 13:00:00 15.2 8 Este 17 Este 0 -- -- 71
2018-05-10 12:00:00 14 7 Nordeste 14 Nordeste 0 -- -- 73
2018-05-10 11:00:00 13.2 4 Nordeste 9 Nordeste 0 -- -- 86
2018-05-10 10:00:00 11.8 0 Calma 4 Sur 0 -- -- 97
2018-05-10 09:00:00 11.4 0 Calma 7 Oeste 0 -- -- 99
2018-05-10 08:00:00 11.1 6 Oeste 10 Oeste 0 -- -- 98
2018-05-10 07:00:00 11.1 5 Oeste 13 Sudoeste 0 -- -- 98
2018-05-10 06:00:00 11.1 8 Sudoeste 20 Oeste 0.8 -- -- 97
2018-05-10 05:00:00 11.8 11 Oeste 21 Oeste 0 -- -- 89
2018-05-10 04:00:00 12.3 12 Oeste 21 Oeste 0 -- -- 84
2018-05-10 03:00:00 12.4 7 Sudoeste 18 Oeste 0 -- -- 84
2018-05-10 02:00:00 12.3 10 Oeste 18 Noroeste 0 -- -- 86
2018-05-10 01:00:00 11.9 8 Oeste 16 Oeste 0 -- -- 88
2018-05-10 00:00:00 12.3 8 Oeste 17 Sudoeste 0 -- -- 89
2018-05-09 23:00:00 12.4 6 Oeste 13 Sudoeste 0 -- -- 91
2018-05-09 22:00:00 12.6 6 Oeste 13 Sudoeste 0 -- -- 92
2018-05-09 21:00:00 12.6 7 Oeste 13 Sudoeste 0 -- -- 94
2018-05-09 20:00:00 12.6 5 Oeste 14 Oeste 0 -- -- 96
2018-05-09 19:00:00 13 6 Sudoeste 15 Sudoeste 0 -- -- 93
2018-05-09 18:00:00 13.8 5 Oeste 12 Sudoeste 0 -- -- 91
2018-05-09 17:00:00 13.6 4 Sudoeste 12 Oeste 0 -- -- 95
2018-05-09 16:00:00 13.6 4 Nordeste 11 Nordeste 0 -- -- 96
2018-05-09 15:00:00 14 6 Norte 10 Nordeste 0 -- -- 96
2018-05-09 14:00:00 14.2 4 Nordeste 12 Norte 0 -- -- 96
2018-05-09 13:00:00 14.1 7 Nordeste 13 Norte 0 -- -- 96
2018-05-09 12:00:00 14.5 6 Nordeste 12 Nordeste 0 -- -- 93
2018-05-09 11:00:00 15 4 Noroeste 13 Noroeste 0 -- -- 92
2018-05-09 10:00:00 14.1 3 Nordeste 10 Nordeste 0 -- -- 94
2018-05-09 09:00:00 13.2 4 Oeste 6 Noroeste 0 -- -- 95
2018-05-09 08:00:00 12.7 2 Oeste 6 Oeste 0 -- -- 95
2018-05-09 07:00:00 12.7 4 Oeste 10 Oeste 0 -- -- 94
2018-05-09 06:00:00 12.7 7 Oeste 12 Oeste 0 -- -- 94
2018-05-09 05:00:00 12.4 6 Oeste 9 Oeste 0 -- -- 95
2018-05-09 04:00:00 12.6 4 Oeste 9 Oeste 0 -- -- 95
2018-05-09 03:00:00 12.7 4 Sudoeste 13 Oeste 0 -- -- 95
2018-05-09 02:00:00 12.4 4 Oeste 8 Oeste 0 -- -- 96
2018-05-09 01:00:00 12.3 3 Oeste 7 Sudoeste 0 -- -- 96
2018-05-09 00:00:00 12.3 5 Oeste 8 Oeste 0 -- -- 95
2018-05-08 23:00:00 12.2 5 Noroeste 10 Sudoeste 0 -- -- 94
2018-05-08 22:00:00 13 5 Sudoeste 9 Sudoeste 0 -- -- 91
2018-05-08 21:00:00 13.3 2 Norte 10 Noroeste 0 -- -- 90
2018-05-08 20:00:00 13.6 4 Norte 15 Nordeste 0 -- -- 89
2018-05-08 19:00:00 14.5 6 Norte 15 Nordeste 0 -- -- 86
2018-05-08 18:00:00 14.7 6 Noroeste 13 Noroeste 0 -- -- 89
2018-05-08 17:00:00 15 8 Sudoeste 17 Oeste 0 -- -- 92
2018-05-08 16:00:00 13.2 7 Oeste 19 Oeste 0 -- -- 96
2018-05-08 15:00:00 13.1 8 Oeste 21 Oeste 0 -- -- 97
2018-05-08 14:00:00 13.9 8 Sudoeste 18 Sudoeste 0 -- -- 96
2018-05-08 13:00:00 14.6 4 Noroeste 13 Oeste 0 -- -- 98
2018-05-08 12:00:00 13.7 5 Oeste 13 Oeste 0 -- -- 99
2018-05-08 11:00:00 13.7 5 Oeste 13 Oeste 0 -- -- 99
2018-05-08 10:00:00 14 6 Oeste 15 Oeste 0 -- -- 98
2018-05-08 09:00:00 14.1 6 Oeste 15 Oeste 0 -- -- 97
2018-05-08 08:00:00 14.3 4 Noroeste 9 Oeste 0 -- -- 96
2018-05-08 07:00:00 14 3 Noroeste 8 Noroeste 0 -- -- 97
2018-05-08 06:00:00 13.8 4 Oeste 9 Oeste 0 -- -- 98
2018-05-08 05:00:00 13.7 4 Oeste 10 Oeste 0 -- -- 98
2018-05-08 04:00:00 13.6 5 Oeste 10 Sudoeste 0 -- -- 99
2018-05-08 03:00:00 13.4 4 Oeste 12 Oeste 0 -- -- 99
2018-05-08 02:00:00 13.3 4 Oeste 8 Sudoeste 0 -- -- 99
2018-05-08 01:00:00 13.2 4 Sudoeste 9 Oeste 0 -- -- 99
2018-05-08 00:00:00 13.4 3 Oeste 6 Oeste 0 -- -- 98
2018-05-07 23:00:00 13.4 0 Calma 4 Norte 0 -- -- 98
2018-05-07 22:00:00 13.7 2 Este 10 Noroeste 0 -- -- 96
2018-05-07 21:00:00 13.9 6 Noroeste 13 Noroeste 0 -- -- 94
2018-05-07 20:00:00 15 8 Norte 13 Norte 0 -- -- 91
2018-05-07 19:00:00 15.8 8 Norte 15 Norte 0 -- -- 89
2018-05-07 18:00:00 15.9 10 Norte 17 Norte 0 -- -- 91
2018-05-07 17:00:00 16.1 10 Nordeste 17 Nordeste 0 -- -- 89
2018-05-07 16:00:00 15.7 12 Nordeste 17 Nordeste 0 -- -- 90
2018-05-07 15:00:00 15.8 12 Nordeste 15 Norte 0 -- -- 91
2018-05-07 14:00:00 15.2 9 Nordeste 14 Nordeste 0 -- -- 94
2018-05-07 13:00:00 15 9 Nordeste 14 Nordeste 0 -- -- 96
2018-05-07 12:00:00 14.4 6 Norte 13 Nordeste 0 -- -- 99
2018-05-07 11:00:00 14 9 Nordeste 13 Nordeste 0 -- -- 99
2018-05-07 10:00:00 14.4 8 Nordeste 10 Nordeste 0 -- -- 100
2018-05-07 09:00:00 12.5 0 Calma 5 Oeste 0 -- -- 100
2018-05-07 08:00:00 10.5 0 Calma 9 Oeste 0 -- -- 100
2018-05-07 07:00:00 10.7 4 Oeste 6 Oeste 0 -- -- 100
2018-05-07 06:00:00 10.9 5 Oeste 10 Oeste 0 -- -- 100
2018-05-07 05:00:00 11.1 7 Oeste 10 Sudoeste 0 -- -- 100
2018-05-07 04:00:00 11.3 7 Oeste 11 Oeste 0 -- -- 99
2018-05-07 03:00:00 11.6 8 Sudoeste 11 Oeste 0 -- -- 99
2018-05-07 02:00:00 12 4 Oeste 12 Oeste 0 -- -- 98
2018-05-07 01:00:00 12.4 8 Oeste 11 Oeste 0 -- -- 98
2018-05-07 00:00:00 12.5 5 Oeste 9 Oeste 0 -- -- 98
2018-05-06 23:00:00 12.8 3 Oeste 5 Nordeste 0 -- -- 96
2018-05-06 22:00:00 14 3 Norte 4 Norte 0 -- -- 94
2018-05-06 21:00:00 15.4 0 Calma 9 Nordeste 0 -- -- 90
2018-05-06 20:00:00 16.7 5 Nordeste 13 Norte 0 -- -- 85
2018-05-06 19:00:00 16.9 9 Nordeste 14 Nordeste 0 -- -- 82
2018-05-06 18:00:00 17.5 8 Nordeste 16 Nordeste 0 -- -- 79
2018-05-06 17:00:00 17.3 13 Nordeste 18 Norte 0 -- -- 82
2018-05-06 16:00:00 17.8 9 Nordeste 16 Nordeste 0 -- -- 85
2018-05-06 15:00:00 17.4 10 Este 18 Nordeste 0 -- -- 85
2018-05-06 14:00:00 17.2 11 Nordeste 17 Este 0 -- -- 88
2018-05-06 13:00:00 16.8 9 Nordeste 15 Nordeste 0 -- -- 89
2018-05-06 12:00:00 16.7 8 Nordeste 15 Nordeste 0 -- -- 89
2018-05-06 11:00:00 15.5 11 Nordeste 15 Nordeste 0 -- -- 90
2018-05-06 10:00:00 14.6 8 Nordeste 10 Nordeste 0 -- -- 94
2018-05-06 09:00:00 11.5 8 Sudoeste 11 Sudoeste 0 -- -- 98
2018-05-06 08:00:00 9.8 9 Sudoeste 14 Sudoeste 0 -- -- 98
2018-05-06 07:00:00 9.3 10 Oeste 17 Oeste 0 -- -- 98
2018-05-06 06:00:00 9.2 8 Oeste 16 Este 0 -- -- 98
2018-05-06 05:00:00 10.3 3 Nordeste 12 Este 0 -- -- 97
2018-05-06 04:00:00 9.5 3 Este 8 Este 0 -- -- 98
2018-05-06 03:00:00 9.8 4 Oeste 9 Sudoeste 0 -- -- 97
2018-05-06 02:00:00 12.2 5 Este 13 Este 0 -- -- 96
2018-05-06 01:00:00 12.5 8 Este 15 Este 0 -- -- 97
2018-05-06 00:00:00 12.6 8 Este 18 Este 0 -- -- 96
2018-05-05 23:00:00 13.2 9 Este 22 Este 0 -- -- 96
2018-05-05 22:00:00 13.5 10 Este 18 Este 0 -- -- 94
2018-05-05 21:00:00 14 10 Este 17 Este 0 -- -- 91
2018-05-05 20:00:00 15.1 11 Este 18 Este 0 -- -- 86
2018-05-05 19:00:00 15.8 10 Este 17 Este 0 -- -- 81
2018-05-05 18:00:00 15.9 12 Este 19 Este 0 -- -- 80
2018-05-05 17:00:00 16.2 10 Este 19 Este 0 -- -- 77
2018-05-05 16:00:00 16.2 13 Este 21 Este 0 -- -- 77
2018-05-05 15:00:00 16 9 Nordeste 19 Nordeste 0 -- -- 79
2018-05-05 14:00:00 15.7 10 Este 19 Este 0 -- -- 79
2018-05-05 13:00:00 15.7 11 Este 19 Este 0 -- -- 80
2018-05-05 12:00:00 15.4 11 Este 21 Este 0 -- -- 79
2018-05-05 11:00:00 14.9 10 Este 15 Este 0 -- -- 81
2018-05-05 10:00:00 13.4 5 Nordeste 9 Este 0 -- -- 89
2018-05-05 09:00:00 10.3 2 Sudoeste 12 Sudoeste 0 -- -- 98
2018-05-05 08:00:00 8 8 Sudoeste 13 Oeste 0 -- -- 98
2018-05-05 07:00:00 7.6 8 Sudoeste 12 Oeste 0 -- -- 98
2018-05-05 06:00:00 7.4 4 Oeste 8 Oeste 0 -- -- 97
2018-05-05 05:00:00 8 3 Oeste 9 Sudoeste 0 -- -- 96
2018-05-05 04:00:00 9 6 Oeste 12 Sudoeste 0 -- -- 97
2018-05-05 03:00:00 9 7 Oeste 9 Oeste 0 -- -- 97
2018-05-05 02:00:00 9.2 6 Oeste 10 Oeste 0 -- -- 95
2018-05-05 01:00:00 10.4 5 Oeste 8 Sudoeste 0 -- -- 95
2018-05-05 00:00:00 10.5 0 Calma 5 Sudeste 0 -- -- 92
2018-05-04 23:00:00 12.3 8 Sudeste 19 Este 0 -- -- 86
2018-05-04 22:00:00 12.4 11 Este 20 Este 0 -- -- 85
2018-05-04 21:00:00 12.8 9 Este 17 Este 0 -- -- 85
2018-05-04 20:00:00 13.4 9 Este 17 Este 0 -- -- 81
2018-05-04 19:00:00 14.9 9 Este 17 Este 0 -- -- 75
2018-05-04 18:00:00 15.3 9 Este 19 Este 0 -- -- 73
2018-05-04 17:00:00 15.3 12 Este 20 Este 0 -- -- 71
2018-05-04 16:00:00 15.5 9 Este 19 Este 0 -- -- 71
2018-05-04 15:00:00 15.5 11 Este 18 Nordeste 0 -- -- 70
2018-05-04 14:00:00 15.4 8 Nordeste 17 Este 0 -- -- 70
2018-05-04 13:00:00 15.4 8 Este 14 Este 0 -- -- 70
2018-05-04 12:00:00 15.3 6 Nordeste 13 Este 0 -- -- 73
2018-05-04 11:00:00 14.6 5 Este 10 Este 0 -- -- 72
2018-05-04 10:00:00 13.4 4 Nordeste 8 Sudoeste 0 -- -- 77
2018-05-04 09:00:00 11.3 6 Oeste 13 Oeste 0 -- -- 87
2018-05-04 08:00:00 9.1 8 Oeste 11 Oeste 0 -- -- 92
2018-05-04 07:00:00 8.9 7 Oeste 15 Oeste 0 -- -- 91
2018-05-04 06:00:00 9 10 Oeste 15 Oeste 0 -- -- 91
2018-05-04 05:00:00 8.6 9 Oeste 13 Oeste 0 -- -- 93
2018-05-04 04:00:00 8.5 9 Oeste 14 Oeste 0 -- -- 91
2018-05-04 03:00:00 8.7 10 Oeste 15 Oeste 0 -- -- 92
2018-05-04 02:00:00 8.4 9 Oeste 15 Oeste 0 -- -- 93
2018-05-04 01:00:00 8.4 10 Oeste 14 Oeste 0 -- -- 92
2018-05-04 00:00:00 8.8 8 Oeste 13 Oeste 0 -- -- 92
2018-05-03 23:00:00 9 7 Oeste 11 Sudoeste 0 -- -- 93
2018-05-03 22:00:00 9.2 4 Noroeste 5 Noroeste 0 -- -- 89
2018-05-03 21:00:00 11.3 2 Noroeste 6 Noroeste 0 -- -- 81
2018-05-03 20:00:00 13.5 3 Norte 9 Nordeste 0 -- -- 69
2018-05-03 19:00:00 13.5 5 Nordeste 11 Nordeste 0 -- -- 71
2018-05-03 18:00:00 14.2 5 Norte 14 Nordeste 0 -- -- 67
2018-05-03 17:00:00 14.4 8 Norte 15 Nordeste 0 -- -- 73
2018-05-03 16:00:00 14.9 9 Nordeste 14 Norte 0 -- -- 69
2018-05-03 15:00:00 14.9 8 Nordeste 14 Nordeste 0 -- -- 71
2018-05-03 14:00:00 14.1 7 Nordeste 13 Norte 0 -- -- 72
2018-05-03 13:00:00 13.8 4 Norte 17 Norte 0 -- -- 72
2018-05-03 12:00:00 13.2 8 Sudoeste 12 Sudoeste 0 -- -- 79
2018-05-03 11:00:00 11.3 6 Nordeste 14 Oeste 0 -- -- 89
2018-05-03 10:00:00 10.7 8 Oeste 17 Oeste 0 -- -- 97
2018-05-03 09:00:00 9.4 7 Oeste 14 Oeste 0 -- -- 98
2018-05-03 08:00:00 8.9 7 Oeste 12 Oeste 0 -- -- 99
2018-05-03 07:00:00 9.2 6 Oeste 10 Oeste 0 -- -- 98
2018-05-03 06:00:00 10 6 Oeste 12 Oeste 0 -- -- 98
2018-05-03 05:00:00 10.1 6 Oeste 10 Oeste 0 -- -- 99
2018-05-03 04:00:00 10.2 5 Oeste 10 Oeste 0 -- -- 99
2018-05-03 03:00:00 10.5 5 Sudoeste 12 Sudoeste 0.4 -- -- 100
2018-05-03 02:00:00 10.8 5 Sudoeste 11 Oeste 0.4 -- -- 99
2018-05-03 01:00:00 11.3 4 Sudoeste 10 Oeste 1.2 -- -- 99
2018-05-03 00:00:00 11.5 4 Sudoeste 6 Sudoeste 1 -- -- 99
2018-05-02 23:00:00 11.9 3 Noroeste 12 Nordeste 1.2 -- -- 98
2018-05-02 22:00:00 12.4 5 Nordeste 22 Oeste 1.8 -- -- 98
2018-05-02 21:00:00 13.5 7 Oeste 15 Oeste 2 -- -- 97
2018-05-02 20:00:00 13.9 5 Oeste 15 Oeste 0.4 -- -- 94
2018-05-02 19:00:00 15.4 9 Oeste 26 Sudoeste 0 -- -- 82
2018-05-02 18:00:00 16.2 12 Oeste 30 Oeste 0 -- -- 77
2018-05-02 17:00:00 16.7 12 Sudoeste 25 Oeste 0 -- -- 78
2018-05-02 16:00:00 16.2 13 Oeste 23 Oeste 0 -- -- 82
2018-05-02 15:00:00 14.5 9 Oeste 18 Oeste 0 -- -- 91
2018-05-02 14:00:00 13.4 5 Oeste 11 Oeste 0 -- -- 95
2018-05-02 13:00:00 12.5 4 Nordeste 6 Nordeste 0 -- -- 90
2018-05-02 12:00:00 12.4 2 Nordeste 5 Este 0 -- -- 89
2018-05-02 11:00:00 11.9 2 Sudoeste 6 Oeste 0.2 -- -- 89
2018-05-02 10:00:00 10.9 3 Oeste 12 Oeste 0 -- -- 91
2018-05-02 09:00:00 10.3 2 Oeste 11 Oeste 0 -- -- 91
2018-05-02 08:00:00 9.7 5 Sudoeste 12 Oeste 0 -- -- 91
2018-05-02 07:00:00 9.9 8 Oeste 13 Oeste 0 -- -- 86
2018-05-02 06:00:00 9.8 9 Oeste 13 Oeste 0 -- -- 87
2018-05-02 05:00:00 9.7 8 Oeste 11 Oeste 0 -- -- 88
2018-05-02 04:00:00 9.3 5 Oeste 10 Oeste 0 -- -- 92
2018-05-02 03:00:00 9.3 4 Sudoeste 9 Sudoeste 0 -- -- 93
2018-05-02 02:00:00 9.4 0 Calma 12 Oeste 0 -- -- 91
2018-05-02 01:00:00 9.5 8 Oeste 14 Oeste 0 -- -- 90
2018-05-02 00:00:00 9.6 9 Oeste 14 Oeste 0 -- -- 91
2018-05-01 23:00:00 9.5 0 Calma 6 Este 0 -- -- 87
2018-05-01 22:00:00 10.9 5 Este 17 Este 0 -- -- 81
2018-05-01 21:00:00 11.6 11 Este 21 Este 0 -- -- 78
2018-05-01 20:00:00 12.9 13 Este 21 Este 0 -- -- 72
2018-05-01 19:00:00 13.3 12 Este 21 Este 0 -- -- 70
2018-05-01 18:00:00 13.9 13 Este 19 Nordeste 0 -- -- 65
2018-05-01 17:00:00 14.3 9 Este 15 Este 0 -- -- 67
2018-05-01 16:00:00 14.3 8 Nordeste 17 Este 0 -- -- 65
2018-05-01 15:00:00 13.9 9 Nordeste 16 Norte 0 -- -- 69
2018-05-01 14:00:00 13.6 11 Norte 21 Norte 0 -- -- 65
2018-05-01 13:00:00 13.4 13 Nordeste 20 Norte 0 -- -- 67
2018-05-01 12:00:00 14.1 11 Nordeste 17 Noroeste 0 -- -- 67
2018-05-01 11:00:00 13 6 Oeste 14 Oeste 0 -- -- 62
2018-05-01 10:00:00 11.2 7 Oeste 15 Sudoeste 0 -- -- 74
2018-05-01 09:00:00 8.2 8 Oeste 15 Oeste 0 -- -- 82
2018-05-01 08:00:00 6.6 10 Oeste 17 Oeste 0 -- -- 87
2018-05-01 07:00:00 6.3 9 Oeste 14 Oeste 0 -- -- 88
2018-05-01 06:00:00 7.4 8 Oeste 16 Oeste 0 -- -- 85
2018-05-01 05:00:00 7.4 10 Oeste 16 Oeste 0 -- -- 87
2018-05-01 04:00:00 7.4 10 Oeste 17 Oeste 0 -- -- 88
2018-05-01 03:00:00 7.2 10 Oeste 16 Oeste 0 -- -- 92
2018-05-01 02:00:00 7.4 9 Oeste 16 Oeste 0 -- -- 94
2018-05-01 01:00:00 7.9 9 Sudoeste 21 Oeste 0.6 -- -- 92
2018-05-01 00:00:00 7.6 10 Oeste 17 Oeste 0 -- -- 90
2018-04-30 23:00:00 8.1 10 Oeste 17 Oeste 0 -- -- 89
2018-04-30 22:00:00 8.5 9 Oeste 24 Oeste 0 -- -- 89
2018-04-30 21:00:00 10.2 13 Oeste 22 Oeste 0 -- -- 84
2018-04-30 20:00:00 12.2 2 Sudoeste 6 Sudoeste 0 -- -- 78
2018-04-30 19:00:00 11.1 4 Sudoeste 17 Oeste 0 -- -- 88
2018-04-30 18:00:00 10.3 3 Sudoeste 13 Oeste 1.2 -- -- 89
2018-04-30 17:00:00 10 8 Oeste 14 Oeste 1.2 -- -- 93
2018-04-30 16:00:00 11.5 9 Oeste 27 Sudoeste 0 -- -- 79
2018-04-30 15:00:00 12 13 Oeste 26 Oeste 0 -- -- 83
2018-04-30 14:00:00 10 7 Sudoeste 13 Sudoeste 3.4 -- -- 95
2018-04-30 13:00:00 10.2 9 Oeste 26 Sudoeste 2 -- -- 84
2018-04-30 12:00:00 9.4 13 Sudoeste 19 Sudoeste 1.2 -- -- 94
2018-04-30 11:00:00 8 6 Oeste 20 Oeste 2.8 -- -- 95
2018-04-30 10:00:00 8.2 10 Oeste 20 Oeste 0.2 -- -- 92
2018-04-30 09:00:00 7.9 10 Oeste 21 Oeste 0 -- -- 92
2018-04-30 08:00:00 7.2 11 Oeste 17 Oeste 0.4 -- -- 95
2018-04-30 07:00:00 7.1 8 Oeste 15 Oeste 0.4 -- -- 94
2018-04-30 06:00:00 7 8 Oeste 14 Oeste 1.6 -- -- 95
2018-04-30 05:00:00 7.3 8 Oeste 15 Oeste 1.6 -- -- 95
2018-04-30 04:00:00 7.7 5 Oeste 12 Sudoeste 1 -- -- 96
2018-04-30 03:00:00 8.2 4 Oeste 9 Sudoeste 1 -- -- 97
2018-04-30 02:00:00 8.3 4 Oeste 10 Oeste 0.4 -- -- 97
2018-04-30 01:00:00 8.4 4 Oeste 10 Oeste 0.4 -- -- 96
2018-04-30 00:00:00 8.4 6 Oeste 13 Oeste 0.2 -- -- 96
2018-04-29 23:00:00 8.5 6 Oeste 13 Oeste 0.4 -- -- 95
2018-04-29 22:00:00 8.8 8 Oeste 20 Noroeste 0.4 -- -- 92
2018-04-29 21:00:00 8.9 6 Oeste 15 Sudoeste 0 -- -- 94
2018-04-29 20:00:00 8.8 10 Oeste 17 Oeste 2.2 -- -- 96
2018-04-29 19:00:00 9.3 8 Sudoeste 26 Sudoeste 3 -- -- 93
2018-04-29 18:00:00 11.4 6 Oeste 18 Oeste 0.2 -- -- 84
2018-04-29 17:00:00 12.6 5 Sudoeste 17 Sudoeste 0 -- -- 77
2018-04-29 16:00:00 13 4 Norte 22 Nordeste 0 -- -- 77
2018-04-29 15:00:00 13.3 14 Nordeste 23 Norte 0 -- -- 77
2018-04-29 14:00:00 13.2 14 Nordeste 21 Nordeste 0 -- -- 78
2018-04-29 13:00:00 12.2 9 Norte 20 Nordeste 0 -- -- 79
2018-04-29 12:00:00 13.2 10 Nordeste 15 Norte 0 -- -- 79
2018-04-29 11:00:00 12.3 6 Nordeste 12 Sudoeste 0 -- -- 82
2018-04-29 10:00:00 9.9 8 Oeste 15 Oeste 0 -- -- 98
2018-04-29 09:00:00 7.8 8 Oeste 16 Oeste 0 -- -- 100
2018-04-29 08:00:00 6.5 12 Oeste 17 Oeste 0 -- -- 100
2018-04-29 07:00:00 6.1 11 Oeste 17 Oeste 0 -- -- 100
2018-04-29 06:00:00 6 9 Oeste 14 Oeste 0 -- -- 100
2018-04-29 05:00:00 6.5 9 Oeste 15 Oeste 0 -- -- 100
2018-04-29 04:00:00 6.6 9 Oeste 14 Oeste 0 -- -- 100
2018-04-29 03:00:00 7.2 8 Oeste 13 Oeste 0 -- -- 100
2018-04-29 02:00:00 8 6 Oeste 10 Oeste 0 -- -- 100
2018-04-29 01:00:00 8.7 5 Oeste 8 Oeste 0 -- -- 99
2018-04-29 00:00:00 8.9 4 Oeste 6 Oeste 0.8 -- -- 99
2018-04-28 23:00:00 9.2 0 Calma 6 Oeste 1 -- -- 98
2018-04-28 22:00:00 9.6 3 Sur 13 Norte 2 -- -- 96
2018-04-28 21:00:00 9.8 6 Nordeste 18 Nordeste 0.8 -- -- 96
2018-04-28 20:00:00 9.8 7 Nordeste 21 Nordeste 1.4 -- -- 96
2018-04-28 19:00:00 10.2 4 Nordeste 13 Este 2.2 -- -- 96
2018-04-28 18:00:00 10.2 6 Este 21 Nordeste 0.4 -- -- 95
2018-04-28 17:00:00 10.3 10 Este 22 Este 0 -- -- 95
2018-04-28 16:00:00 10.3 8 Este 21 Este 0.6 -- -- 96
2018-04-28 15:00:00 10.9 2 Sudeste 17 Este 0 -- -- 90
2018-04-28 14:00:00 11.1 9 Este 19 Este 0 -- -- 86
2018-04-28 13:00:00 11 13 Este 20 Este 0 -- -- 92
2018-04-28 12:00:00 11.3 5 Norte 9 Nordeste 0 -- -- 90
2018-04-28 11:00:00 10.5 0 Calma 8 Oeste 0 -- -- 89
2018-04-28 10:00:00 9.9 6 Oeste 9 Oeste 0 -- -- 93
2018-04-28 09:00:00 9.4 3 Oeste 12 Oeste 0 -- -- 94
2018-04-28 08:00:00 9.3 4 Oeste 11 Oeste 0 -- -- 95
2018-04-28 07:00:00 9.3 2 Sudoeste 10 Oeste 0 -- -- 94
2018-04-28 06:00:00 9.3 6 Oeste 11 Oeste 0 -- -- 95
2018-04-28 05:00:00 9.4 7 Oeste 10 Oeste 0 -- -- 95
2018-04-28 04:00:00 9.5 5 Oeste 14 Noroeste 0 -- -- 93
2018-04-28 03:00:00 10 7 Oeste 14 Oeste 0 -- -- 87
2018-04-28 02:00:00 9.7 5 Sudoeste 11 Oeste 0 -- -- 92
2018-04-28 01:00:00 9.7 7 Oeste 15 Oeste 0 -- -- 94
2018-04-28 00:00:00 9.6 11 Oeste 17 Oeste 0 -- -- 93
2018-04-27 23:00:00 11 3 Oeste 9 Oeste 0 -- -- 84
2018-04-27 22:00:00 11.4 3 Oeste 6 Oeste 0 -- -- 81
2018-04-27 21:00:00 11.9 4 Oeste 8 Oeste 0 -- -- 77
2018-04-27 20:00:00 12.3 4 Oeste 11 Oeste 0 -- -- 75
2018-04-27 19:00:00 12.7 3 Oeste 18 Sudoeste 0 -- -- 76
2018-04-27 18:00:00 13.2 9 Oeste 23 Oeste 0 -- -- 68
2018-04-27 17:00:00 14 15 Oeste 32 Sudoeste 0 -- -- 66
2018-04-27 16:00:00 14 9 Oeste 28 Oeste 0 -- -- 70
2018-04-27 15:00:00 13.9 11 Sudoeste 37 Oeste 0 -- -- 69
2018-04-27 14:00:00 14 19 Oeste 37 Oeste 0 -- -- 66
2018-04-27 13:00:00 14.5 16 Sudoeste 31 Oeste 0 -- -- 68
2018-04-27 12:00:00 14 11 Oeste 28 Oeste 0 -- -- 73
2018-04-27 11:00:00 13.8 14 Oeste 35 Oeste 0 -- -- 76
2018-04-27 10:00:00 13 11 Oeste 27 Oeste 0 -- -- 85
2018-04-27 09:00:00 12.7 11 Oeste 31 Oeste 0 -- -- 85
2018-04-27 08:00:00 10.9 7 Oeste 13 Oeste 0 -- -- 94
2018-04-27 07:00:00 9.5 6 Oeste 17 Oeste 0 -- -- 95
2018-04-27 06:00:00 9.6 2 Sudoeste 13 Sudoeste 0 -- -- 96
2018-04-27 05:00:00 10.4 6 Oeste 17 Oeste 0 -- -- 95
2018-04-27 04:00:00 10.8 9 Oeste 18 Oeste 0 -- -- 96
2018-04-27 03:00:00 9.7 8 Oeste 15 Oeste 0 -- -- 97
2018-04-27 02:00:00 10.3 9 Sudoeste 13 Sudoeste 0 -- -- 94
2018-04-27 01:00:00 11.2 6 Sudoeste 10 Oeste 0 -- -- 91
2018-04-27 00:00:00 12.2 4 Oeste 8 Oeste 0 -- -- 90
2018-04-26 23:00:00 12.7 0 Calma 19 Este 0 -- -- 88
2018-04-26 22:00:00 13.1 11 Este 23 Este 0 -- -- 84
2018-04-26 21:00:00 13.3 14 Este 27 Este 0 -- -- 83
2018-04-26 20:00:00 13.7 15 Este 27 Este 0 -- -- 82
2018-04-26 19:00:00 14 18 Este 29 Este 0 -- -- 79
2018-04-26 18:00:00 14.4 16 Este 27 Este 0 -- -- 80
2018-04-26 17:00:00 14.8 15 Este 26 Este 0 -- -- 78
2018-04-26 16:00:00 15.1 14 Este 22 Este 0 -- -- 75
2018-04-26 15:00:00 15 13 Este 23 Este 0 -- -- 79
2018-04-26 14:00:00 14.3 15 Este 26 Este 0 -- -- 81
2018-04-26 13:00:00 13.6 15 Este 23 Este 0 -- -- 83
2018-04-26 12:00:00 13.7 9 Este 15 Este 0 -- -- 87
2018-04-26 11:00:00 12.7 9 Este 15 Este 0 -- -- 93
2018-04-26 10:00:00 12.6 5 Este 10 Este 0 -- -- 99
2018-04-26 09:00:00 11.1 3 Sudoeste 7 Oeste 0 -- -- 100
2018-04-26 08:00:00 10.5 5 Oeste 8 Sudoeste 0 -- -- 100
2018-04-26 07:00:00 10.6 6 Oeste 8 Oeste 0.2 -- -- 100
2018-04-26 06:00:00 10.6 3 Oeste 5 Oeste 0 -- -- 100
2018-04-26 05:00:00 11.2 0 Calma 3 Oeste 0 -- -- 99
2018-04-26 04:00:00 11.3 2 Oeste 6 Oeste 0 -- -- 99
2018-04-26 03:00:00 11.4 5 Sudoeste 8 Sudoeste 0 -- -- 98
2018-04-26 02:00:00 11.5 3 Sudoeste 8 Oeste 0 -- -- 98
2018-04-26 01:00:00 11.5 2 Sudoeste 9 Oeste 0 -- -- 97
2018-04-26 00:00:00 11.8 6 Oeste 9 Oeste 0 -- -- 96
2018-04-25 23:00:00 11.9 4 Oeste 10 Oeste 0 -- -- 96
2018-04-25 22:00:00 11.9 4 Oeste 9 Oeste 0 -- -- 95
2018-04-25 21:00:00 12.1 5 Sudoeste 10 Sudoeste 0 -- -- 94
2018-04-25 20:00:00 12.5 4 Oeste 10 Sudoeste 0 -- -- 92
2018-04-25 19:00:00 12.8 5 Oeste 10 Oeste 0 -- -- 96
2018-04-25 18:00:00 12.7 3 Sudoeste 12 Oeste 0 -- -- 95
2018-04-25 17:00:00 12.8 3 Este 14 Norte 0 -- -- 95
2018-04-25 16:00:00 13.9 4 Este 12 Oeste 0 -- -- 93
2018-04-25 15:00:00 14.4 6 Nordeste 19 Nordeste 0 -- -- 90
2018-04-25 14:00:00 15.4 6 Norte 12 Nordeste 0 -- -- 84
2018-04-25 13:00:00 14.9 2 Este 9 Sudoeste 0 -- -- 94
2018-04-25 12:00:00 14.1 4 Sudoeste 7 Sudoeste 0 -- -- 99
2018-04-25 11:00:00 13.2 4 Sudeste 8 Sudoeste 0 -- -- 100
2018-04-25 10:00:00 13.1 3 Noroeste 5 Noroeste 0 -- -- 100
2018-04-25 09:00:00 13 2 Sudoeste 4 Sudoeste 0 -- -- 100
2018-04-25 08:00:00 12.7 3 Sudoeste 5 Sudoeste 0.2 -- -- 100
2018-04-25 07:00:00 12.9 0 Calma 7 Sudoeste 0.4 -- -- 100
2018-04-25 06:00:00 13.3 4 Sudoeste 8 Sudoeste 0 -- -- 100
2018-04-25 05:00:00 13.2 2 Oeste 6 Oeste 0 -- -- 100
2018-04-25 04:00:00 13.4 0 Calma 5 Oeste 0 -- -- 100
2018-04-25 03:00:00 13.5 3 Oeste 6 Oeste 0 -- -- 100
2018-04-25 02:00:00 13.6 0 Calma 3 Sur 0.2 -- -- 100
2018-04-25 01:00:00 13.5 0 Calma 5 Noroeste 0.4 -- -- 100
2018-04-25 00:00:00 13.6 3 Norte 7 Norte 0.4 -- -- 100